CST,Max TemperatureF,Mean TemperatureF,Min TemperatureF,Max Dew PointF,MeanDew PointF,Min DewpointF,Max Humidity, Mean Humidity, Min Humidity, Max Sea Level PressureIn, Mean Sea Level PressureIn, Min Sea Level PressureIn, Max VisibilityMiles, Mean VisibilityMiles, Min VisibilityMiles, Max Wind SpeedMPH, Mean Wind SpeedMPH, Max Gust SpeedMPH,PrecipitationIn, CloudCover, Events, WindDirDegrees
2012-11-1,30,28,26,27,23,21,86,77,67,30.24,30.21,30.17,15,14,9,20,15,26,0.00,8,,357
2012-11-2,30,28,26,23,22,10,86,77,51,30.27,30.25,30.22,15,14,9,10,7,,0.00,8,,75
2012-11-3,36,32,27,28,26,25,100,83,70,30.33,30.30,30.26,15,14,9,14,6,,0.00,8,Snow,69
2012-11-4,35,32,29,30,28,25,87,83,76,30.31,30.28,30.25,15,14,9,12,7,,0.00,8,,103
2012-11-5,40,34,29,34,31,25,100,85,70,30.29,30.04,29.65,15,10,2,28,12,28,0.08,8,Rain-Snow,182
2012-11-6,40,36,33,39,35,32,100,94,87,30.03,29.85,29.64,15,12,4,23,15,29,0.12,8,Snow,314
2012-11-7,39,33,27,37,33,28,100,93,82,30.08,29.98,29.79,15,14,9,20,10,24,0.02,7,Rain,163
2012-11-8,37,32,26,37,30,23,100,85,73,30.32,30.01,29.67,15,14,6,28,17,33,0.00,7,Rain,344
2012-11-9,27,24,21,23,15,7,93,68,37,30.39,30.33,30.21,15,13,6,22,16,26,0.00,7,,30
2012-11-10,24,23,22,23,21,14,96,87,55,30.18,29.94,29.66,15,3,0,22,16,24,0.39,8,Snow,44
2012-11-11,21,19,17,23,18,16,100,90,85,29.75,29.67,29.60,15,7,1,20,14,21,0.08,8,Snow,296
2012-11-12,21,16,12,19,15,7,93,86,73,30.12,29.97,29.75,15,10,2,26,18,34,0.00,7,Snow,297
2012-11-13,20,12,3,16,11,3,93,84,71,30.32,30.25,30.13,15,14,9,9,6,,0.00,6,,254
2012-11-14,28,19,10,28,18,9,100,90,70,30.31,30.14,29.96,15,7,0,18,10,25,0.02,4,Fog,175
2012-11-15,19,14,8,23,11,7,93,78,62,30.49,30.34,29.98,15,14,9,18,11,,0.00,2,,260
2012-11-16,32,22,11,23,19,12,86,74,60,30.39,30.22,30.09,15,14,9,29,22,36,0.02,3,,178
2012-11-17,25,18,10,22,17,9,100,89,65,30.17,30.13,30.07,15,10,0,16,7,,0.00,4,Fog,281
2012-11-18,39,23,7,36,22,7,100,94,81,30.12,30.03,29.94,12,6,0,12,3,,0.00,3,Fog,110
2012-11-19,34,28,21,32,27,19,100,93,83,30.16,30.03,29.87,15,7,0,13,6,,0.02,3,Fog,230
2012-11-20,37,28,18,34,28,19,100,84,67,30.15,29.97,29.83,15,12,4,29,16,39,0.00,5,,180
2012-11-21,33,30,27,34,31,27,100,95,85,29.93,29.83,29.65,15,14,9,15,9,,0.00,7,,28
2012-11-22,26,19,12,32,19,9,100,88,75,30.34,29.95,29.64,15,8,0,31,20,38,0.00,8,Snow,341
2012-11-23,13,6,-2,12,6,-6,100,85,78,30.56,30.49,30.37,15,12,5,21,15,21,0.00,5,Snow,319
2012-11-24,21,8,-4,18,10,-2,93,90,80,30.41,30.04,29.82,15,9,0,24,12,30,0.08,7,Snow,178
2012-11-25,20,8,-5,19,6,-8,100,85,61,30.36,30.09,29.91,15,11,1,20,9,26,0.02,5,Snow,306
2012-11-26,15,1,-13,12,-1,-22,100,83,64,30.45,30.34,30.16,15,8,1,17,10,,0.04,6,Snow,210
2012-11-27,10,5,0,9,2,-2,92,81,62,30.32,30.24,30.17,15,13,4,13,7,,0.00,6,Fog-Snow,293
2012-11-28,18,6,-5,16,1,-11,93,81,66,30.33,30.22,30.11,15,13,9,14,7,,0.02,5,Snow,272
2012-11-29,10,5,0,9,2,-6,92,78,56,30.42,30.38,30.34,15,9,1,16,11,,0.00,8,Snow,50
2012-11-30,30,18,6,30,18,8,100,94,84,30.34,30.13,29.86,15,6,2,25,14,33,0.67,8,Snow,136